Monday, December 18, 2017, 3:34 PM EST
Back to Local

KYNG, Youngstown-warren Reg Airprt

Location: Vienna, OH, United States Lat: 41.25
Local Time: 3:34 PM EST (20:34 GMT) Lon: -80.667
Time Zone: US/Eastern Elev: 1197 ft

Show me the last for .
Show Decoded

2017-12-18 14:51 METAR KYNG 181951Z 23009KT 1 1/2SM -RA BR OVC004 04/03 A2993 RMK AO2 DZE08RAB08
                 SLP144 P0000 T00390028 =
2017-12-18 14:44 METAR KYNG 181944Z 23008KT 1 1/2SM -RA BR OVC004 04/03 A2993 RMK AO2 DZE08RAB08
                 P0000 T00390028 =
2017-12-18 13:51 METAR KYNG 181851Z 22008KT 2SM -DZ BR OVC006 03/02 A2993 RMK AO2 DZB49 SLP146
                 P0000 T00330022 =
2017-12-18 12:51 METAR KYNG 181751Z 20008KT 2 1/2SM BR OVC006 03/02 A2995 RMK AO2 SLP150 4/003
                 933003 60000 T00330022 10039 20028 58026 =
2017-12-18 11:51 METAR KYNG 181651Z 20005KT 5SM BR OVC007 03/02 A2997 RMK AO2 DZE30 SLP158 P0000
                 T00330022 =
2017-12-18 10:51 METAR KYNG 181551Z 20009KT 3SM -DZ BR OVC005 03/02 A3001 RMK AO2 DZB40 SLP172
                 P0000 T00280017 =
2017-12-18 09:51 METAR KYNG 181451Z 21009KT 5SM BR OVC009 03/01 A3003 RMK AO2 SLP177 T00280011
                 53002 =
2017-12-18 09:17 METAR KYNG 181417Z 21008KT 7SM BKN009 OVC037 03/01 A3002 =
2017-12-18 08:51 METAR KYNG 181351Z 21009KT 7SM FEW011 OVC037 03/01 A3002 RMK AO2 SLP177
                 T00280006 =
2017-12-18 07:51 METAR KYNG 181251Z 21007KT 10SM BKN042 OVC080 03/M01 A3002 RMK AO2 SLP175
                 T00281006 =
2017-12-18 07:18 METAR KYNG 181218Z 19007KT 10SM SCT027 OVC044 03/M01 A3001 =
2017-12-18 06:51 METAR KYNG 181151Z 18007KT 10SM BKN027 OVC047 03/M01 A3002 RMK AO2 SLP175 4/003
                 T00281006 10028 20022 58005 =
2017-12-18 05:51 METAR KYNG 181051Z 20006KT 10SM OVC050 03/M01 A3003 RMK AO2 SLP178 T00281006 =
2017-12-18 04:51 METAR KYNG 180951Z 20006KT 10SM OVC045 03/M01 A3003 RMK AO2 SLP178 T00281006 =
2017-12-18 03:51 METAR KYNG 180851Z 20005KT 10SM OVC038 02/M01 A3004 RMK AO2 SLP181 T00221006
                 55008 =
2017-12-18 02:51 METAR KYNG 180751Z 19007KT 10SM OVC032 02/M01 A3003 RMK AO2 SLP180 T00221006 =
2017-12-18 02:22 METAR KYNG 180722Z 19005KT 10SM OVC032 02/M01 A3003 RMK AO2 T00221006 =
2017-12-18 01:51 METAR KYNG 180651Z 18005KT 10SM OVC029 02/M01 A3003 RMK AO2 SLP178 T00221006 =
2017-12-18 00:51 METAR KYNG 180551Z 19005KT 10SM OVC025 02/00 A3006 RMK AO2 SLP189 4/003 60000
                 T00220000 10028 20017 58006 =
2017-12-17 23:51 METAR KYNG 180451Z 19003KT 9SM OVC029 02/00 A3007 RMK AO2 DZE03RAB27E36 SLP194
                 P0000 T00220000 400281067 =
2017-12-17 22:51 METAR KYNG 180351Z 17004KT 7SM -DZ BKN029 OVC035 02/01 A3008 RMK AO2 DZB31
                 SLP198 P0000 T00220006 =
2017-12-17 21:51 METAR KYNG 180251Z 18004KT 7SM BKN029 OVC035 02/01 A3008 RMK AO2 RAB13E42 SLP198
                 P0000 60000 T00220006 50005 =
2017-12-17 21:30 METAR KYNG 180230Z 00000KT 7SM -RA BKN027 OVC035 02/00 A3009 RMK AO2 RAB13 P0000
                 T00170000 =
2017-12-17 20:51 METAR KYNG 180151Z 19004KT 9SM BKN038 OVC055 02/00 A3009 RMK AO2 RAB12E35 SLP202
                 P0000 T00220000 =
2017-12-17 19:51 METAR KYNG 180051Z VRB03KT 9SM FEW049 BKN060 OVC080 03/00 A3007 RMK AO2 SLP197
                 T00280000 =
2017-12-17 18:51 METAR KYNG 172351Z 18006KT 9SM SCT070 OVC095 02/M01 A3006 RMK AO2 RAB36E46
                 SLP194 4/003 P0000 60000 T00221006 10028 20017 58013 =
2017-12-17 17:51 METAR KYNG 172251Z 17006KT 9SM BKN095 OVC110 03/M02 A3008 RMK AO2 SLP200
                 T00281017 =
2017-12-17 16:51 METAR KYNG 172151Z 15004KT 9SM BKN085 OVC100 03/M02 A3010 RMK AO2 SLP207
                 T00281017 =
2017-12-17 15:51 METAR KYNG 172051Z 14004KT 9SM BKN095 OVC110 02/M02 A3010 RMK AO2 SLP207
                 T00171017 55008 =

Support USWX by starting your Amazon purchase here.